createdAt,value
2018-03-16T00:01:15.486Z,81.13
2018-03-16T00:03:43.869Z,81.31
2018-03-16T00:06:12.216Z,81.36
2018-03-16T00:08:40.584Z,81.29
2018-03-16T00:11:09.054Z,81.06
2018-03-16T00:13:37.465Z,81.00
2018-03-16T00:16:05.819Z,81.00
2018-03-16T00:18:34.216Z,80.58
2018-03-16T00:21:02.572Z,80.42
2018-03-16T00:23:30.988Z,80.46
2018-03-16T00:25:59.343Z,80.08
2018-03-16T00:28:27.727Z,80.03
2018-03-16T00:30:56.413Z,80.03
2018-03-16T00:33:24.810Z,79.84
2018-03-16T00:35:53.159Z,79.69
2018-03-16T00:38:21.528Z,79.45
2018-03-16T00:40:49.960Z,79.81
2018-03-16T00:43:18.352Z,79.30
2018-03-16T00:45:46.747Z,79.50
2018-03-16T00:48:15.097Z,79.41
2018-03-16T00:50:43.460Z,79.49
2018-03-16T00:53:11.899Z,79.33
2018-03-16T00:55:40.260Z,79.15
2018-03-16T00:58:08.682Z,79.30
2018-03-16T01:00:37.572Z,79.30
2018-03-16T01:03:06.086Z,79.43
2018-03-16T01:05:34.497Z,79.58
2018-03-16T01:08:02.848Z,79.56
2018-03-16T01:10:31.258Z,80.02
2018-03-16T01:12:59.602Z,79.63
2018-03-16T01:15:27.981Z,79.32
2018-03-16T01:17:56.319Z,79.12
2018-03-16T01:20:24.689Z,79.25
2018-03-16T01:22:53.034Z,79.29
2018-03-16T01:25:21.399Z,79.25
2018-03-16T01:27:49.814Z,79.02
2018-03-16T01:30:18.180Z,79.35
2018-03-16T01:32:46.737Z,78.98
2018-03-16T01:35:15.064Z,79.03
2018-03-16T01:37:43.422Z,79.03
2018-03-16T01:40:12.027Z,79.20
2018-03-16T01:42:40.578Z,79.21
2018-03-16T01:45:08.974Z,79.30
2018-03-16T01:47:37.328Z,79.42
2018-03-16T01:50:05.753Z,79.62
2018-03-16T01:52:34.136Z,79.49
2018-03-16T01:55:02.492Z,79.42
2018-03-16T01:57:31.034Z,79.59
2018-03-16T01:59:59.405Z,79.45
2018-03-16T02:02:27.820Z,79.45
2018-03-16T02:04:56.199Z,79.48
2018-03-16T02:07:24.583Z,79.56
2018-03-16T02:09:52.927Z,79.73
2018-03-16T02:12:21.368Z,79.64
2018-03-16T02:14:49.722Z,79.78
2018-03-16T02:17:18.193Z,79.91
2018-03-16T02:19:46.552Z,80.26
2018-03-16T02:22:14.921Z,80.44
2018-03-16T02:24:43.276Z,80.84
2018-03-16T02:27:11.848Z,81.05
2018-03-16T02:29:40.209Z,81.12
2018-03-16T02:32:08.598Z,81.56
2018-03-16T02:34:37.124Z,81.63
2018-03-16T02:37:05.522Z,81.98
2018-03-16T02:39:33.869Z,81.83
2018-03-16T02:42:02.290Z,81.96
2018-03-16T02:44:30.697Z,82.25
2018-03-16T02:46:59.036Z,82.51
2018-03-16T02:49:27.420Z,82.25
2018-03-16T02:51:55.850Z,82.25
2018-03-16T02:54:24.561Z,82.21
2018-03-16T02:56:52.953Z,82.12
2018-03-16T02:59:21.362Z,82.42
2018-03-16T03:01:49.702Z,82.37
2018-03-16T03:04:18.088Z,82.29
2018-03-16T03:06:46.448Z,82.31
2018-03-16T03:09:14.823Z,82.35
2018-03-16T03:11:43.180Z,82.54
2018-03-16T03:14:11.542Z,82.16
2018-03-16T03:16:39.906Z,82.12
2018-03-16T03:19:08.268Z,82.44
2018-03-16T03:21:36.626Z,82.36
2018-03-16T03:24:05.055Z,82.28
2018-03-16T03:26:33.963Z,82.20
2018-03-16T03:29:02.342Z,82.16
2018-03-16T03:31:30.881Z,82.13
2018-03-16T03:33:59.304Z,82.10
2018-03-16T03:36:27.684Z,81.93
2018-03-16T03:38:56.140Z,81.83
2018-03-16T03:41:24.526Z,81.99
2018-03-16T03:43:52.880Z,81.97
2018-03-16T03:46:21.239Z,81.72
2018-03-16T03:48:49.576Z,81.68
2018-03-16T03:51:17.958Z,81.67
2018-03-16T03:53:46.311Z,81.55
2018-03-16T03:56:14.680Z,81.58
2018-03-16T03:58:43.109Z,81.64
2018-03-16T04:01:11.475Z,81.83
2018-03-16T04:03:39.835Z,81.37
2018-03-16T04:06:08.230Z,81.44
2018-03-16T04:08:36.611Z,81.61
2018-03-16T04:11:04.982Z,81.46
2018-03-16T04:13:33.333Z,81.40
2018-03-16T04:16:01.724Z,81.54
2018-03-16T04:18:30.123Z,81.74
2018-03-16T04:20:58.494Z,81.78
2018-03-16T04:23:26.836Z,81.77
2018-03-16T04:25:55.218Z,81.70
2018-03-16T04:28:23.572Z,81.78
2018-03-16T04:30:51.924Z,81.86
2018-03-16T04:33:20.279Z,81.98
2018-03-16T04:35:48.648Z,81.86
2018-03-16T04:38:17.004Z,81.74
2018-03-16T04:40:45.373Z,81.75
2018-03-16T04:43:13.735Z,82.19
2018-03-16T04:45:42.094Z,81.78
2018-03-16T04:48:10.477Z,82.04
2018-03-16T04:50:38.836Z,82.31
2018-03-16T04:53:07.225Z,82.14
2018-03-16T04:55:35.699Z,81.92
2018-03-16T04:58:04.103Z,82.16
2018-03-16T05:00:32.467Z,82.27
2018-03-16T05:03:00.864Z,82.49
2018-03-16T05:05:29.246Z,82.85
2018-03-16T05:07:57.716Z,82.75
2018-03-16T05:10:26.156Z,82.88
2018-03-16T05:12:54.509Z,82.95
2018-03-16T05:15:22.878Z,83.13
2018-03-16T05:17:51.236Z,83.08
2018-03-16T05:20:19.632Z,83.34
2018-03-16T05:22:48.104Z,83.69
2018-03-16T05:25:16.459Z,83.93
2018-03-16T05:27:44.978Z,83.98
2018-03-16T05:30:13.328Z,84.05
2018-03-16T05:32:41.680Z,84.43
2018-03-16T05:35:10.281Z,84.79
2018-03-16T05:37:38.634Z,84.44
2018-03-16T05:40:07.667Z,84.74
2018-03-16T05:42:36.536Z,85.73
2018-03-16T05:45:05.031Z,84.28
2018-03-16T05:47:33.468Z,82.19
2018-03-16T05:50:01.845Z,82.68
2018-03-16T05:52:30.267Z,82.84
2018-03-16T05:54:58.640Z,82.71
2018-03-16T05:57:27.033Z,82.87
2018-03-16T05:59:55.420Z,82.56
2018-03-16T06:02:23.803Z,82.54
2018-03-16T06:04:52.172Z,82.27
2018-03-16T06:07:20.526Z,81.72
2018-03-16T06:09:48.887Z,81.00
2018-03-16T06:12:17.245Z,81.30
2018-03-16T06:14:45.848Z,82.59
2018-03-16T06:17:14.297Z,83.19
2018-03-16T06:19:42.672Z,83.62
2018-03-16T06:22:11.063Z,84.17
2018-03-16T06:24:39.576Z,84.03
2018-03-16T06:27:07.960Z,84.23
2018-03-16T06:29:36.366Z,84.42
2018-03-16T06:32:04.727Z,84.89
2018-03-16T06:34:33.082Z,84.89
2018-03-16T06:37:01.440Z,85.41
2018-03-16T06:39:29.913Z,85.86
2018-03-16T06:41:58.261Z,86.50
2018-03-16T06:44:26.740Z,86.40
2018-03-16T06:46:55.109Z,86.26
2018-03-16T06:49:23.513Z,86.66
2018-03-16T06:51:52.025Z,86.27
2018-03-16T06:54:20.980Z,86.91
2018-03-16T06:56:49.346Z,87.00
2018-03-16T06:59:17.802Z,87.37
2018-03-16T07:01:46.156Z,87.45
2018-03-16T07:04:14.515Z,87.02
2018-03-16T07:06:42.939Z,86.93
2018-03-16T07:09:12.158Z,87.01
2018-03-16T07:11:40.568Z,87.12
2018-03-16T07:14:08.924Z,87.68
2018-03-16T07:16:37.363Z,87.15
2018-03-16T07:19:05.733Z,87.25
2018-03-16T07:21:34.111Z,86.89
2018-03-16T07:24:02.464Z,86.14
2018-03-16T07:26:30.823Z,86.80
2018-03-16T07:28:59.237Z,86.52
2018-03-16T07:31:27.615Z,86.40
2018-03-16T07:33:55.967Z,85.71
2018-03-16T07:36:24.477Z,85.18
2018-03-16T07:38:52.839Z,85.46
2018-03-16T07:41:21.448Z,85.76
2018-03-16T07:43:49.823Z,86.04
2018-03-16T07:46:18.187Z,86.29
2018-03-16T07:48:46.589Z,86.19
2018-03-16T07:51:15.024Z,86.71
2018-03-16T07:53:43.394Z,86.34
2018-03-16T07:56:11.817Z,85.68
2018-03-16T07:58:40.213Z,85.93
2018-03-16T08:01:08.632Z,85.83
2018-03-16T08:03:36.997Z,85.68
2018-03-16T08:06:05.346Z,85.29
2018-03-16T08:08:33.703Z,84.91
2018-03-16T08:11:02.046Z,84.59
2018-03-16T08:13:30.460Z,84.42
2018-03-16T08:15:58.812Z,84.03
2018-03-16T08:18:27.227Z,84.19
2018-03-16T08:20:55.580Z,83.91
2018-03-16T08:23:24.041Z,84.25
2018-03-16T08:25:52.421Z,83.70
2018-03-16T08:28:20.796Z,84.17
2018-03-16T08:30:49.193Z,83.84
2018-03-16T08:33:17.598Z,83.69
2018-03-16T08:35:45.953Z,83.60
2018-03-16T08:38:14.328Z,83.65
2018-03-16T08:40:42.762Z,83.95
2018-03-16T08:43:11.270Z,83.91
2018-03-16T08:45:39.649Z,84.41
2018-03-16T08:48:08.048Z,84.29
2018-03-16T08:50:36.448Z,84.86
2018-03-16T08:53:04.836Z,85.16
2018-03-16T08:55:33.196Z,84.63
2018-03-16T08:58:01.593Z,84.88
2018-03-16T09:00:30.015Z,84.50
2018-03-16T09:02:58.356Z,84.71
2018-03-16T09:05:26.749Z,85.81
2018-03-16T09:07:55.192Z,85.26
2018-03-16T09:10:23.742Z,85.03
2018-03-16T09:12:52.184Z,85.40
2018-03-16T09:15:20.576Z,85.14
2018-03-16T09:17:49.144Z,85.09
2018-03-16T09:20:17.515Z,85.59
2018-03-16T09:22:45.873Z,85.34
2018-03-16T09:25:14.375Z,85.48
2018-03-16T09:27:42.837Z,85.05
2018-03-16T09:30:11.178Z,85.22
2018-03-16T09:32:39.577Z,85.58
2018-03-16T09:35:07.972Z,85.57
2018-03-16T09:37:36.419Z,85.94
2018-03-16T09:40:04.822Z,86.27
2018-03-16T09:42:33.167Z,85.61
2018-03-16T09:45:01.568Z,85.13
2018-03-16T09:47:29.924Z,85.35
2018-03-16T09:49:58.313Z,85.46
2018-03-16T09:52:26.693Z,86.36
2018-03-16T09:55:06.938Z,85.87
2018-03-16T09:57:35.381Z,86.49
2018-03-16T10:00:03.740Z,86.58
2018-03-16T10:02:32.117Z,86.84
2018-03-16T10:05:00.596Z,87.01
2018-03-16T10:07:28.977Z,86.65
2018-03-16T10:09:57.387Z,86.44
2018-03-16T10:12:25.848Z,86.91
2018-03-16T10:14:54.224Z,85.96
2018-03-16T10:17:22.611Z,86.69
2018-03-16T10:19:51.000Z,87.16
2018-03-16T10:22:19.344Z,87.51
2018-03-16T10:24:47.724Z,86.51
2018-03-16T10:27:16.137Z,86.67
2018-03-16T10:29:44.619Z,86.97
2018-03-16T10:32:13.026Z,86.42
2018-03-16T10:34:41.379Z,85.74
2018-03-16T10:37:10.014Z,86.69
2018-03-16T10:39:38.375Z,85.72
2018-03-16T10:42:06.770Z,85.21
2018-03-16T10:44:35.175Z,84.99
2018-03-16T10:47:03.517Z,85.66
2018-03-16T10:49:31.900Z,85.49
2018-03-16T10:52:00.529Z,85.47
2018-03-16T10:54:28.901Z,85.99
2018-03-16T10:56:57.285Z,86.49
2018-03-16T10:59:25.652Z,85.65
2018-03-16T11:01:55.971Z,85.21
2018-03-16T11:04:35.205Z,85.97
2018-03-16T11:07:09.150Z,85.03
2018-03-16T11:09:37.518Z,85.29
2018-03-16T11:12:05.938Z,84.29
2018-03-16T11:14:34.286Z,83.53
2018-03-16T11:17:02.651Z,82.92
2018-03-16T11:19:31.014Z,82.67
2018-03-16T11:21:59.600Z,83.88
2018-03-16T11:24:28.101Z,84.42
2018-03-16T11:26:56.469Z,84.97
2018-03-16T11:29:24.903Z,84.25
2018-03-16T11:31:53.273Z,83.62
2018-03-16T11:34:21.654Z,83.31
2018-03-16T11:36:50.059Z,83.73
2018-03-16T11:39:18.443Z,83.32
2018-03-16T11:41:46.844Z,83.96
2018-03-16T11:44:15.212Z,83.50
2018-03-16T11:46:43.579Z,84.90
2018-03-16T11:49:11.962Z,85.17
2018-03-16T11:51:40.369Z,84.02
2018-03-16T11:54:08.748Z,84.76
2018-03-16T11:56:37.123Z,84.12
2018-03-16T11:59:05.482Z,83.48
2018-03-16T12:01:33.850Z,85.88
2018-03-16T12:04:02.270Z,85.44
2018-03-16T12:06:30.633Z,85.35
2018-03-16T12:08:58.980Z,85.26
2018-03-16T12:11:27.455Z,85.78
2018-03-16T12:13:55.833Z,86.52
2018-03-16T12:16:24.222Z,86.12
2018-03-16T12:18:52.635Z,85.85
2018-03-16T12:21:21.760Z,85.65
2018-03-16T12:23:50.130Z,84.96
2018-03-16T12:26:18.519Z,86.37
2018-03-16T12:28:49.951Z,86.48
2018-03-16T12:31:15.340Z,87.33
2018-03-16T12:33:43.789Z,87.50
2018-03-16T12:36:12.159Z,87.67
2018-03-16T12:38:40.516Z,87.85
2018-03-16T12:41:08.924Z,87.21
2018-03-16T12:43:37.381Z,87.05
2018-03-16T12:46:06.351Z,86.70
2018-03-16T12:48:34.738Z,87.51
2018-03-16T12:51:03.105Z,87.54
2018-03-16T12:53:31.511Z,86.56
2018-03-16T12:55:59.907Z,86.72
2018-03-16T12:58:28.278Z,86.33
2018-03-16T13:00:56.632Z,87.14
2018-03-16T13:03:24.991Z,86.40
2018-03-16T13:05:53.827Z,86.51
2018-03-16T13:08:22.216Z,87.38
2018-03-16T13:10:50.566Z,87.80
2018-03-16T13:13:18.925Z,87.28
2018-03-16T13:15:47.454Z,87.46
2018-03-16T13:18:15.836Z,87.93
2018-03-16T13:20:44.185Z,88.01
2018-03-16T13:23:12.659Z,87.92
2018-03-16T13:25:41.077Z,88.06
2018-03-16T13:28:09.477Z,87.59
2018-03-16T13:30:37.874Z,87.96
2018-03-16T13:33:06.255Z,88.37
2018-03-16T13:35:34.650Z,89.30
2018-03-16T13:38:03.026Z,89.24
2018-03-16T13:40:31.590Z,89.35
2018-03-16T13:43:00.013Z,89.40
2018-03-16T13:45:28.663Z,89.27
2018-03-16T13:47:57.026Z,88.91
2018-03-16T13:50:25.380Z,88.23
2018-03-16T13:52:53.764Z,88.19
2018-03-16T13:55:22.128Z,87.92
2018-03-16T13:57:50.533Z,88.42
2018-03-16T14:00:18.905Z,88.31
2018-03-16T14:02:47.359Z,87.60
2018-03-16T14:05:15.751Z,87.08
2018-03-16T14:07:44.149Z,87.35
2018-03-16T14:10:12.553Z,87.71
2018-03-16T14:12:40.938Z,88.12
2018-03-16T14:15:09.326Z,88.46
2018-03-16T14:17:37.700Z,88.32
2018-03-16T14:20:06.253Z,88.01
2018-03-16T14:22:34.584Z,89.04
2018-03-16T14:25:02.960Z,87.93
2018-03-16T14:27:31.327Z,87.94
2018-03-16T14:29:59.685Z,88.53
2018-03-16T14:32:28.052Z,88.51
2018-03-16T14:34:56.461Z,89.32
2018-03-16T14:37:24.826Z,88.48
2018-03-16T14:39:53.194Z,89.04
2018-03-16T14:42:21.555Z,88.47
2018-03-16T14:44:49.921Z,87.99
2018-03-16T14:47:18.281Z,88.23
2018-03-16T14:49:46.733Z,88.85
2018-03-16T14:52:15.200Z,88.55
2018-03-16T14:54:43.642Z,88.26
2018-03-16T14:57:12.037Z,88.24
2018-03-16T14:59:40.485Z,88.31
2018-03-16T15:02:09.010Z,87.97
2018-03-16T15:04:37.404Z,87.64
2018-03-16T15:07:05.766Z,86.94
2018-03-16T15:09:34.119Z,87.17
2018-03-16T15:12:02.473Z,87.67
2018-03-16T15:14:30.823Z,87.28
2018-03-16T15:16:59.322Z,87.45
2018-03-16T15:19:27.673Z,87.50
2018-03-16T15:21:56.120Z,87.83
2018-03-16T15:24:24.859Z,87.30
2018-03-16T15:26:53.300Z,86.98
2018-03-16T15:29:21.622Z,87.22
2018-03-16T15:31:49.952Z,87.31
2018-03-16T15:34:18.303Z,86.90
2018-03-16T15:36:46.734Z,86.67
2018-03-16T15:39:15.112Z,85.08
2018-03-16T15:41:43.445Z,86.12
2018-03-16T15:44:11.767Z,86.54
2018-03-16T15:46:40.089Z,86.85
2018-03-16T15:49:08.477Z,86.55
2018-03-16T15:51:36.825Z,86.58
2018-03-16T15:54:05.157Z,86.66
2018-03-16T15:56:33.567Z,86.91
2018-03-16T15:59:01.923Z,86.88
2018-03-16T16:01:30.350Z,86.41
2018-03-16T16:03:58.681Z,85.70
2018-03-16T16:06:27.006Z,86.79
2018-03-16T16:08:55.337Z,86.83
2018-03-16T16:11:23.656Z,86.33
2018-03-16T16:13:51.978Z,86.52
2018-03-16T16:16:20.308Z,86.93
2018-03-16T16:18:48.629Z,87.44
2018-03-16T16:21:16.964Z,87.00
2018-03-16T16:23:45.311Z,87.11
2018-03-16T16:26:13.618Z,86.43
2018-03-16T16:28:42.055Z,86.87
2018-03-16T16:31:10.394Z,86.65
2018-03-16T16:33:38.936Z,87.12
2018-03-16T16:36:07.376Z,87.69
2018-03-16T16:38:35.725Z,86.93
2018-03-16T16:41:04.060Z,86.72
2018-03-16T16:43:32.451Z,86.67
2018-03-16T16:46:00.765Z,87.22
2018-03-16T16:48:29.090Z,86.17
2018-03-16T16:50:57.421Z,86.23
2018-03-16T16:53:25.763Z,85.67
2018-03-16T16:55:54.093Z,85.32
2018-03-16T16:58:22.438Z,85.84
2018-03-16T17:00:50.777Z,86.80
2018-03-16T17:03:19.118Z,85.98
2018-03-16T17:05:47.450Z,85.69
2018-03-16T17:08:15.780Z,85.74
2018-03-16T17:10:44.102Z,85.32
2018-03-16T17:13:12.439Z,85.60
2018-03-16T17:15:40.779Z,84.54
2018-03-16T17:18:09.206Z,85.26
2018-03-16T17:20:37.614Z,84.70
2018-03-16T17:23:06.107Z,85.96
2018-03-16T17:25:34.655Z,85.90
2018-03-16T17:28:03.049Z,85.86
2018-03-16T17:30:31.404Z,84.62
2018-03-16T17:32:59.738Z,86.22
2018-03-16T17:35:28.091Z,86.17
2018-03-16T17:37:56.432Z,86.46
2018-03-16T17:40:24.776Z,85.06
2018-03-16T17:42:53.209Z,85.23
2018-03-16T17:45:21.581Z,85.32
2018-03-16T17:47:49.933Z,85.05
2018-03-16T17:50:18.267Z,86.11
2018-03-16T17:52:46.603Z,85.45
2018-03-16T17:55:14.985Z,85.92
2018-03-16T17:57:43.362Z,86.69
2018-03-16T18:00:11.702Z,85.78
2018-03-16T18:02:40.101Z,85.91
2018-03-16T18:05:08.544Z,87.42
2018-03-16T18:07:36.920Z,86.63
2018-03-16T18:10:05.267Z,85.13
2018-03-16T18:12:33.745Z,85.85
2018-03-16T18:15:02.105Z,85.99
2018-03-16T18:17:30.434Z,86.36
2018-03-16T18:19:59.096Z,85.80
2018-03-16T18:22:27.492Z,85.22
2018-03-16T18:24:55.829Z,85.34
2018-03-16T18:27:24.178Z,85.32
2018-03-16T18:29:52.691Z,84.99
2018-03-16T18:32:21.041Z,84.80
2018-03-16T18:34:49.443Z,85.62
2018-03-16T18:37:17.869Z,85.64
2018-03-16T18:39:46.189Z,85.55
2018-03-16T18:42:14.552Z,85.37
2018-03-16T18:44:42.890Z,85.05
2018-03-16T18:47:14.053Z,85.01
2018-03-16T18:49:42.382Z,85.51
2018-03-16T18:52:10.923Z,86.10
2018-03-16T18:54:39.263Z,86.01
2018-03-16T18:57:07.646Z,84.63
2018-03-16T18:59:36.134Z,85.04
2018-03-16T19:02:04.469Z,85.56
2018-03-16T19:04:32.855Z,84.95
2018-03-16T19:07:01.213Z,85.24
2018-03-16T19:09:29.549Z,86.13
2018-03-16T19:11:57.883Z,85.88
2018-03-16T19:14:26.235Z,85.77
2018-03-16T19:16:54.596Z,85.77
2018-03-16T19:19:22.940Z,86.39
2018-03-16T19:21:51.303Z,87.92
2018-03-16T19:24:19.757Z,85.18
2018-03-16T19:26:48.087Z,85.65
2018-03-16T19:29:16.472Z,86.25
2018-03-16T19:31:44.791Z,86.42
2018-03-16T19:34:13.156Z,85.86
2018-03-16T19:36:41.498Z,86.70
2018-03-16T19:39:09.888Z,86.65
2018-03-16T19:41:38.344Z,87.12
2018-03-16T19:44:06.810Z,87.29
2018-03-16T19:46:35.165Z,87.05
2018-03-16T19:49:03.849Z,86.74
2018-03-16T19:51:33.143Z,86.96
2018-03-16T19:54:01.489Z,86.90
2018-03-16T19:56:29.839Z,87.03
2018-03-16T19:58:58.167Z,86.60
2018-03-16T20:01:26.495Z,86.25
2018-03-16T20:03:54.826Z,85.90
2018-03-16T20:06:23.149Z,85.95
2018-03-16T20:08:51.514Z,85.96
2018-03-16T20:11:19.888Z,85.25
2018-03-16T20:13:48.218Z,85.57
2018-03-16T20:16:16.597Z,85.85
2018-03-16T20:18:44.941Z,85.15
2018-03-16T20:21:13.292Z,84.20
2018-03-16T20:23:41.616Z,84.26
2018-03-16T20:26:10.174Z,85.40
2018-03-16T20:28:38.519Z,85.47
2018-03-16T20:31:07.026Z,84.06
2018-03-16T20:33:35.363Z,84.27
2018-03-16T20:36:03.681Z,84.49
2018-03-16T20:38:32.020Z,84.79
2018-03-16T20:41:00.465Z,84.74
2018-03-16T20:43:28.802Z,84.71
2018-03-16T20:45:57.191Z,83.85
2018-03-16T20:48:25.650Z,83.86
2018-03-16T20:50:53.992Z,84.53
2018-03-16T20:53:22.388Z,84.77
2018-03-16T20:55:50.730Z,85.05
2018-03-16T20:58:19.075Z,84.50
2018-03-16T21:00:47.409Z,84.59
2018-03-16T21:03:15.746Z,84.35
2018-03-16T21:05:44.092Z,83.55
2018-03-16T21:08:12.574Z,84.22
2018-03-16T21:10:40.940Z,84.67
2018-03-16T21:13:09.301Z,84.68
2018-03-16T21:15:37.730Z,84.48
2018-03-16T21:18:06.264Z,85.11
2018-03-16T21:20:34.605Z,84.77
2018-03-16T21:23:02.967Z,85.40
2018-03-16T21:25:31.276Z,85.13
2018-03-16T21:27:59.651Z,85.18
2018-03-16T21:30:28.011Z,85.21
2018-03-16T21:32:56.340Z,85.71
2018-03-16T21:35:24.667Z,85.56
2018-03-16T21:37:53.015Z,85.93
2018-03-16T21:40:21.484Z,85.45
2018-03-16T21:42:49.841Z,85.85
2018-03-16T21:45:18.207Z,85.63
2018-03-16T21:47:46.534Z,85.95
2018-03-16T21:50:14.888Z,85.94
2018-03-16T21:52:43.207Z,85.85
2018-03-16T21:55:11.541Z,85.56
2018-03-16T21:57:39.863Z,85.84
2018-03-16T22:00:08.275Z,85.37
2018-03-16T22:02:36.599Z,86.24
2018-03-16T22:05:04.919Z,85.69
2018-03-16T22:07:33.328Z,85.99
2018-03-16T22:10:01.731Z,86.28
2018-03-16T22:12:30.058Z,87.02
2018-03-16T22:14:58.464Z,86.79
2018-03-16T22:17:26.793Z,86.30
2018-03-16T22:19:55.158Z,86.66
2018-03-16T22:22:23.503Z,86.78
2018-03-16T22:24:51.868Z,86.98
2018-03-16T22:27:20.194Z,86.76
2018-03-16T22:29:49.351Z,85.39
2018-03-16T22:32:17.769Z,85.21
2018-03-16T22:34:46.148Z,85.29
2018-03-16T22:37:14.638Z,85.26
2018-03-16T22:39:43.000Z,85.40
2018-03-16T22:42:11.406Z,85.69
2018-03-16T22:44:39.797Z,85.54
2018-03-16T22:47:08.130Z,85.28
2018-03-16T22:49:36.487Z,85.77
2018-03-16T22:52:04.807Z,86.12
2018-03-16T22:54:33.184Z,85.15
2018-03-16T22:57:01.533Z,85.53
2018-03-16T22:59:30.219Z,85.59
2018-03-16T23:01:58.552Z,85.22
2018-03-16T23:04:26.908Z,84.80
2018-03-16T23:06:55.301Z,85.09
2018-03-16T23:09:23.634Z,84.83
2018-03-16T23:11:52.159Z,84.59
2018-03-16T23:14:20.507Z,84.43
2018-03-16T23:16:48.852Z,84.56
2018-03-16T23:19:17.174Z,85.32
2018-03-16T23:21:45.613Z,84.57
2018-03-16T23:24:13.951Z,84.25
2018-03-16T23:26:42.291Z,84.45
2018-03-16T23:29:10.645Z,84.54
2018-03-16T23:31:39.000Z,84.66
2018-03-16T23:34:08.396Z,83.98
2018-03-16T23:36:36.790Z,84.57
2018-03-16T23:39:05.160Z,85.48
2018-03-16T23:41:33.485Z,84.57
2018-03-16T23:44:01.853Z,85.61
2018-03-16T23:46:30.236Z,85.34
2018-03-16T23:48:58.572Z,85.35
2018-03-16T23:51:26.924Z,85.86
2018-03-16T23:53:55.268Z,85.66
2018-03-16T23:56:23.599Z,85.24
2018-03-16T23:58:51.914Z,84.38
